VOI5578 MMMY-MMMM
Flight info
| Callsign | VOI5578 |
|---|---|
| Flight time | 1h 6m |
| Altitude | 35000 |
| Route | URTOB1A URTOB UJ11 BEROS UJ31 SLP/N0455F360 UJ40 MLM |
| Aircraft | A320/M-SDE3FGHIRWY/LB1 |
Departure
| Time | 2026-04-27 06:23 |
|---|---|
| Airport | Monterrey International Airport (MMMY) |
Arrival
| Time | 2026-04-27 07:29 |
|---|---|
| Airport | General Francisco J. Mujica International Airport (MMMM) |
| Time | Latitude | Longitude | Altitude | Speed | Heading |
|---|---|---|---|---|---|
| 2026-04-27 06:01 | 25.77985 | -100.11467 | 1281 ft | 0 kts | 121° |
| 2026-04-27 06:15 | 25.77992 | -100.11479 | 1283 ft | 4 kts | 114° |
| 2026-04-27 06:15 | 25.77998 | -100.11507 | 1281 ft | 4 kts | 81° |
| 2026-04-27 06:16 | 25.77989 | -100.11527 | 1281 ft | 1 kts | 31° |
| 2026-04-27 06:16 | 25.77988 | -100.11528 | 1281 ft | 0 kts | 31° |
| 2026-04-27 06:18 | 25.77992 | -100.11525 | 1281 ft | 1 kts | 31° |
| 2026-04-27 06:19 | 25.78005 | -100.11516 | 1281 ft | 3 kts | 32° |
| 2026-04-27 06:19 | 25.78028 | -100.11500 | 1281 ft | 5 kts | 32° |
| 2026-04-27 06:19 | 25.78063 | -100.11492 | 1282 ft | 6 kts | 340° |
| 2026-04-27 06:19 | 25.78091 | -100.11530 | 1281 ft | 7 kts | 295° |
| 2026-04-27 06:20 | 25.78115 | -100.11583 | 1281 ft | 8 kts | 302° |
| 2026-04-27 06:20 | 25.78151 | -100.11642 | 1281 ft | 10 kts | 303° |
| 2026-04-27 06:20 | 25.78191 | -100.11711 | 1281 ft | 11 kts | 301° |
| 2026-04-27 06:20 | 25.78231 | -100.11784 | 1281 ft | 10 kts | 302° |
| 2026-04-27 06:21 | 25.78289 | -100.11795 | 1282 ft | 10 kts | 29° |
| 2026-04-27 06:21 | 25.78353 | -100.11751 | 1281 ft | 12 kts | 32° |
| 2026-04-27 06:21 | 25.78400 | -100.11703 | 1281 ft | 8 kts | 82° |
| 2026-04-27 06:21 | 25.78376 | -100.11645 | 1281 ft | 9 kts | 122° |
| 2026-04-27 06:22 | 25.78346 | -100.11591 | 1283 ft | 20 kts | 122° |
| 2026-04-27 06:22 | 25.78152 | -100.11236 | 1281 ft | 86 kts | 121° |
| 2026-04-27 06:22 | 25.77753 | -100.10510 | 1279 ft | 135 kts | 121° |
| 2026-04-27 06:22 | 25.77191 | -100.09475 | 1349 ft | 169 kts | 120° |
| 2026-04-27 06:23 | 25.76600 | -100.08383 | 2003 ft | 165 kts | 120° |
| 2026-04-27 06:23 | 25.76022 | -100.07289 | 2727 ft | 162 kts | 118° |
| 2026-04-27 06:23 | 25.75470 | -100.06189 | 3228 ft | 169 kts | 119° |
| 2026-04-27 06:23 | 25.74864 | -100.04970 | 3426 ft | 193 kts | 121° |
| 2026-04-27 06:24 | 25.74176 | -100.03597 | 3681 ft | 210 kts | 122° |
| 2026-04-27 06:24 | 25.73464 | -100.02188 | 4423 ft | 206 kts | 122° |
| 2026-04-27 06:24 | 25.72768 | -100.00811 | 5112 ft | 206 kts | 122° |
| 2026-04-27 06:24 | 25.72048 | -99.99392 | 5500 ft | 220 kts | 121° |
| 2026-04-27 06:25 | 25.71266 | -99.97861 | 5881 ft | 234 kts | 121° |
| 2026-04-27 06:25 | 25.70438 | -99.96296 | 6429 ft | 237 kts | 128° |
| 2026-04-27 06:25 | 25.69215 | -99.95070 | 6990 ft | 240 kts | 151° |
| 2026-04-27 06:25 | 25.67625 | -99.94512 | 7569 ft | 244 kts | 175° |
| 2026-04-27 06:26 | 25.65941 | -99.94754 | 8136 ft | 249 kts | 199° |
| 2026-04-27 06:26 | 25.64475 | -99.95801 | 8693 ft | 256 kts | 222° |
| 2026-04-27 06:26 | 25.63261 | -99.97261 | 9234 ft | 259 kts | 227° |
| 2026-04-27 06:26 | 25.62163 | -99.98862 | 9796 ft | 262 kts | 233° |
| 2026-04-27 06:27 | 25.61204 | -100.00592 | 10352 ft | 265 kts | 240° |
| 2026-04-27 06:27 | 25.60403 | -100.02436 | 10909 ft | 267 kts | 246° |
| 2026-04-27 06:27 | 25.59766 | -100.04373 | 11482 ft | 269 kts | 252° |
| 2026-04-27 06:27 | 25.59301 | -100.06387 | 12058 ft | 270 kts | 258° |
| 2026-04-27 06:28 | 25.59022 | -100.08446 | 12652 ft | 270 kts | 264° |
| 2026-04-27 06:28 | 25.58941 | -100.10526 | 13242 ft | 271 kts | 270° |
| 2026-04-27 06:28 | 25.59048 | -100.12619 | 13755 ft | 277 kts | 275° |
| 2026-04-27 06:28 | 25.59365 | -100.14815 | 13885 ft | 299 kts | 282° |
| 2026-04-27 06:29 | 25.59888 | -100.17121 | 14019 ft | 318 kts | 280° |
| 2026-04-27 06:29 | 25.60107 | -100.19623 | 14142 ft | 335 kts | 268° |
| 2026-04-27 06:29 | 25.59816 | -100.22242 | 14284 ft | 351 kts | 256° |
| 2026-04-27 06:29 | 25.58958 | -100.24807 | 14623 ft | 360 kts | 243° |
| 2026-04-27 06:30 | 25.57580 | -100.27138 | 15138 ft | 364 kts | 231° |
| 2026-04-27 06:30 | 25.55751 | -100.29079 | 15700 ft | 367 kts | 220° |
| 2026-04-27 06:30 | 25.53740 | -100.30832 | 16253 ft | 368 kts | 220° |
| 2026-04-27 06:30 | 25.51725 | -100.32589 | 16814 ft | 369 kts | 220° |
| 2026-04-27 06:31 | 25.49730 | -100.34329 | 17384 ft | 371 kts | 220° |
| 2026-04-27 06:31 | 25.47675 | -100.36120 | 17961 ft | 372 kts | 221° |
| 2026-04-27 06:31 | 25.45662 | -100.37872 | 18518 ft | 373 kts | 221° |
| 2026-04-27 06:31 | 25.43591 | -100.39674 | 19043 ft | 376 kts | 221° |
| 2026-04-27 06:32 | 25.41520 | -100.41472 | 19524 ft | 379 kts | 221° |
| 2026-04-27 06:32 | 25.39465 | -100.43257 | 19985 ft | 382 kts | 221° |
| 2026-04-27 06:32 | 25.37336 | -100.45108 | 20466 ft | 385 kts | 221° |
| 2026-04-27 06:32 | 25.35224 | -100.46940 | 20938 ft | 388 kts | 221° |
| 2026-04-27 06:33 | 25.33117 | -100.48764 | 21352 ft | 391 kts | 221° |
| 2026-04-27 06:33 | 25.30938 | -100.50644 | 21774 ft | 394 kts | 221° |
| 2026-04-27 06:33 | 25.28766 | -100.52517 | 22178 ft | 397 kts | 221° |
| 2026-04-27 06:33 | 25.26582 | -100.54397 | 22612 ft | 400 kts | 221° |
| 2026-04-27 06:34 | 25.24376 | -100.56293 | 23013 ft | 403 kts | 221° |
| 2026-04-27 06:34 | 25.22184 | -100.58177 | 23404 ft | 405 kts | 221° |
| 2026-04-27 06:34 | 25.19926 | -100.60123 | 23780 ft | 408 kts | 221° |
| 2026-04-27 06:34 | 25.17715 | -100.62030 | 24131 ft | 410 kts | 221° |
| 2026-04-27 06:35 | 25.15459 | -100.63973 | 24507 ft | 413 kts | 221° |
| 2026-04-27 06:35 | 25.13187 | -100.65927 | 24885 ft | 415 kts | 221° |
| 2026-04-27 06:35 | 25.10905 | -100.67891 | 25245 ft | 416 kts | 221° |
| 2026-04-27 06:35 | 25.08616 | -100.69860 | 25590 ft | 418 kts | 221° |
| 2026-04-27 06:36 | 25.06318 | -100.71835 | 25950 ft | 420 kts | 221° |
| 2026-04-27 06:36 | 25.04013 | -100.73818 | 26293 ft | 421 kts | 221° |
| 2026-04-27 06:36 | 25.01695 | -100.75814 | 26642 ft | 423 kts | 222° |
| 2026-04-27 06:36 | 24.99377 | -100.77805 | 26983 ft | 424 kts | 222° |
| 2026-04-27 06:37 | 24.97044 | -100.79808 | 27305 ft | 426 kts | 222° |
| 2026-04-27 06:37 | 24.94698 | -100.81820 | 27650 ft | 428 kts | 222° |
| 2026-04-27 06:37 | 24.92340 | -100.83841 | 27992 ft | 429 kts | 222° |
| 2026-04-27 06:37 | 24.89977 | -100.85862 | 28347 ft | 431 kts | 222° |
| 2026-04-27 06:38 | 24.87602 | -100.87889 | 28683 ft | 432 kts | 222° |
| 2026-04-27 06:38 | 24.85203 | -100.89889 | 29017 ft | 436 kts | 218° |
| 2026-04-27 06:38 | 24.82526 | -100.91509 | 29421 ft | 443 kts | 208° |
| 2026-04-27 06:38 | 24.79580 | -100.92556 | 29858 ft | 448 kts | 198° |
| 2026-04-27 06:39 | 24.76462 | -100.92997 | 30266 ft | 456 kts | 187° |
| 2026-04-27 06:39 | 24.73274 | -100.93015 | 30677 ft | 457 kts | 186° |
| 2026-04-27 06:39 | 24.70099 | -100.93012 | 31075 ft | 456 kts | 186° |
| 2026-04-27 06:39 | 24.66922 | -100.93002 | 31465 ft | 456 kts | 186° |
| 2026-04-27 06:40 | 24.63754 | -100.92996 | 31850 ft | 455 kts | 186° |
| 2026-04-27 06:40 | 24.60581 | -100.93003 | 32240 ft | 456 kts | 186° |
| 2026-04-27 06:40 | 24.57408 | -100.93007 | 32655 ft | 455 kts | 186° |
| 2026-04-27 06:40 | 24.54239 | -100.93008 | 33041 ft | 455 kts | 186° |
| 2026-04-27 06:41 | 24.51081 | -100.93009 | 33419 ft | 454 kts | 186° |
| 2026-04-27 06:41 | 24.47923 | -100.93006 | 33798 ft | 453 kts | 186° |
| 2026-04-27 06:41 | 24.44765 | -100.93001 | 34156 ft | 453 kts | 186° |
| 2026-04-27 06:41 | 24.41610 | -100.93001 | 34488 ft | 453 kts | 186° |
| 2026-04-27 06:42 | 24.38460 | -100.93004 | 34802 ft | 453 kts | 186° |
| 2026-04-27 06:42 | 24.35310 | -100.93010 | 34963 ft | 454 kts | 187° |
| 2026-04-27 06:42 | 24.28916 | -100.93023 | 34995 ft | 463 kts | 186° |
| 2026-04-27 06:43 | 24.22449 | -100.93021 | 35002 ft | 465 kts | 186° |
| 2026-04-27 06:43 | 24.15976 | -100.93020 | 35005 ft | 465 kts | 186° |
| 2026-04-27 06:44 | 24.09508 | -100.93017 | 35061 ft | 465 kts | 186° |
| 2026-04-27 06:44 | 24.03025 | -100.93017 | 35084 ft | 466 kts | 186° |
| 2026-04-27 06:45 | 23.96544 | -100.93026 | 35095 ft | 466 kts | 186° |
| 2026-04-27 06:45 | 23.90048 | -100.93035 | 35099 ft | 467 kts | 186° |
| 2026-04-27 06:46 | 23.83545 | -100.93024 | 35106 ft | 467 kts | 186° |
| 2026-04-27 06:46 | 23.77034 | -100.93019 | 35118 ft | 468 kts | 186° |
| 2026-04-27 06:47 | 23.70527 | -100.93021 | 35128 ft | 468 kts | 186° |
| 2026-04-27 06:47 | 23.64021 | -100.93016 | 35137 ft | 468 kts | 186° |
| 2026-04-27 06:48 | 23.57510 | -100.92999 | 35147 ft | 468 kts | 186° |
| 2026-04-27 06:48 | 23.51029 | -100.92991 | 35156 ft | 468 kts | 186° |
| 2026-04-27 06:49 | 23.44512 | -100.92995 | 35162 ft | 468 kts | 186° |
| 2026-04-27 06:49 | 23.37995 | -100.93000 | 35172 ft | 469 kts | 186° |
| 2026-04-27 06:50 | 23.31472 | -100.93002 | 35180 ft | 468 kts | 186° |
| 2026-04-27 06:50 | 23.24957 | -100.93004 | 35185 ft | 468 kts | 186° |
| 2026-04-27 06:51 | 23.18436 | -100.92997 | 35190 ft | 468 kts | 186° |
| 2026-04-27 06:51 | 23.11916 | -100.92994 | 35194 ft | 469 kts | 186° |
| 2026-04-27 06:52 | 23.05399 | -100.92991 | 35200 ft | 468 kts | 185° |
| 2026-04-27 06:52 | 22.98880 | -100.93005 | 35203 ft | 468 kts | 185° |
| 2026-04-27 06:53 | 22.92356 | -100.93016 | 35209 ft | 469 kts | 185° |
| 2026-04-27 06:53 | 22.85828 | -100.93023 | 35213 ft | 469 kts | 185° |
| 2026-04-27 06:54 | 22.79304 | -100.93020 | 35219 ft | 469 kts | 185° |
| 2026-04-27 06:54 | 22.72813 | -100.93022 | 35223 ft | 469 kts | 185° |
| 2026-04-27 06:55 | 22.66287 | -100.93033 | 35227 ft | 469 kts | 185° |
| 2026-04-27 06:55 | 22.59758 | -100.93038 | 35230 ft | 469 kts | 185° |
| 2026-04-27 06:56 | 22.53229 | -100.93034 | 35230 ft | 470 kts | 185° |
| 2026-04-27 06:56 | 22.46683 | -100.93032 | 35230 ft | 470 kts | 185° |
| 2026-04-27 06:57 | 22.40148 | -100.93032 | 35233 ft | 470 kts | 185° |
| 2026-04-27 06:57 | 22.33601 | -100.93034 | 35232 ft | 470 kts | 185° |
| 2026-04-27 06:58 | 22.23944 | -100.93922 | 35225 ft | 457 kts | 202° |
| 2026-04-27 06:59 | 22.18068 | -100.96389 | 35223 ft | 453 kts | 207° |
| 2026-04-27 06:59 | 22.12237 | -100.98974 | 35223 ft | 453 kts | 207° |
| 2026-04-27 07:00 | 22.06399 | -101.01555 | 35223 ft | 453 kts | 207° |
| 2026-04-27 07:00 | 22.00550 | -101.04127 | 35225 ft | 454 kts | 207° |
| 2026-04-27 07:01 | 21.94704 | -101.06698 | 35226 ft | 454 kts | 207° |
| 2026-04-27 07:01 | 21.88843 | -101.09274 | 35223 ft | 455 kts | 207° |
| 2026-04-27 07:02 | 21.82982 | -101.11851 | 35229 ft | 455 kts | 207° |
| 2026-04-27 07:02 | 21.77162 | -101.14417 | 35234 ft | 455 kts | 207° |
| 2026-04-27 07:03 | 21.71303 | -101.16998 | 35236 ft | 455 kts | 207° |
| 2026-04-27 07:03 | 21.65443 | -101.19584 | 35235 ft | 455 kts | 207° |
| 2026-04-27 07:04 | 21.60539 | -101.21742 | 35238 ft | 455 kts | 207° |
| 2026-04-27 07:04 | 21.54677 | -101.24314 | 35243 ft | 455 kts | 207° |
| 2026-04-27 07:05 | 21.48804 | -101.26878 | 35244 ft | 455 kts | 207° |
| 2026-04-27 07:05 | 21.42940 | -101.29437 | 35243 ft | 456 kts | 207° |
| 2026-04-27 07:06 | 21.37067 | -101.32002 | 35246 ft | 455 kts | 207° |
| 2026-04-27 07:06 | 21.31193 | -101.34564 | 35257 ft | 455 kts | 206° |
| 2026-04-27 07:07 | 21.25366 | -101.37107 | 35262 ft | 455 kts | 207° |
| 2026-04-27 07:07 | 21.19487 | -101.39671 | 35266 ft | 455 kts | 207° |
| 2026-04-27 07:08 | 21.13618 | -101.42227 | 35252 ft | 455 kts | 206° |
| 2026-04-27 07:08 | 21.07751 | -101.44772 | 35256 ft | 456 kts | 206° |
| 2026-04-27 07:09 | 21.01659 | -101.46750 | 35241 ft | 464 kts | 192° |
| 2026-04-27 07:09 | 20.98398 | -101.46946 | 34239 ft | 479 kts | 180° |
| 2026-04-27 07:09 | 20.95050 | -101.46379 | 33148 ft | 494 kts | 167° |
| 2026-04-27 07:09 | 20.91784 | -101.45153 | 32192 ft | 501 kts | 162° |
| 2026-04-27 07:10 | 20.88517 | -101.43844 | 31243 ft | 503 kts | 162° |
| 2026-04-27 07:10 | 20.85219 | -101.42556 | 30308 ft | 505 kts | 162° |
| 2026-04-27 07:10 | 20.81910 | -101.41288 | 29355 ft | 506 kts | 162° |
| 2026-04-27 07:10 | 20.78579 | -101.40021 | 28333 ft | 507 kts | 162° |
| 2026-04-27 07:11 | 20.75258 | -101.38756 | 27286 ft | 508 kts | 162° |
| 2026-04-27 07:11 | 20.71926 | -101.37478 | 26162 ft | 509 kts | 162° |
| 2026-04-27 07:11 | 20.68585 | -101.36184 | 25084 ft | 509 kts | 161° |
| 2026-04-27 07:11 | 20.65286 | -101.34898 | 24377 ft | 500 kts | 161° |
| 2026-04-27 07:12 | 20.62046 | -101.33635 | 23655 ft | 491 kts | 161° |
| 2026-04-27 07:12 | 20.58861 | -101.32398 | 22872 ft | 484 kts | 161° |
| 2026-04-27 07:12 | 20.55716 | -101.31180 | 22056 ft | 477 kts | 161° |
| 2026-04-27 07:12 | 20.52612 | -101.29977 | 21250 ft | 471 kts | 161° |
| 2026-04-27 07:13 | 20.49556 | -101.28791 | 20573 ft | 463 kts | 160° |
| 2026-04-27 07:13 | 20.46583 | -101.27639 | 20320 ft | 445 kts | 160° |
| 2026-04-27 07:13 | 20.43736 | -101.26535 | 20232 ft | 425 kts | 160° |
| 2026-04-27 07:13 | 20.41020 | -101.25482 | 20256 ft | 406 kts | 160° |
| 2026-04-27 07:14 | 20.38420 | -101.24477 | 20252 ft | 392 kts | 160° |
| 2026-04-27 07:14 | 20.35859 | -101.23492 | 20250 ft | 390 kts | 160° |
| 2026-04-27 07:14 | 20.33303 | -101.22512 | 20245 ft | 390 kts | 160° |
| 2026-04-27 07:14 | 20.30753 | -101.21536 | 20248 ft | 389 kts | 160° |
| 2026-04-27 07:15 | 20.28198 | -101.20556 | 19947 ft | 389 kts | 160° |
| 2026-04-27 07:15 | 20.25665 | -101.19586 | 19571 ft | 386 kts | 160° |
| 2026-04-27 07:15 | 20.23145 | -101.18618 | 19197 ft | 382 kts | 160° |
| 2026-04-27 07:15 | 20.20669 | -101.17663 | 18815 ft | 375 kts | 160° |
| 2026-04-27 07:16 | 20.18268 | -101.16735 | 18450 ft | 370 kts | 160° |
| 2026-04-27 07:16 | 20.15871 | -101.15809 | 18075 ft | 364 kts | 160° |
| 2026-04-27 07:16 | 20.13499 | -101.14895 | 17698 ft | 360 kts | 160° |
| 2026-04-27 07:16 | 20.11158 | -101.13992 | 17323 ft | 357 kts | 160° |
| 2026-04-27 07:17 | 20.08827 | -101.13095 | 16939 ft | 354 kts | 160° |
| 2026-04-27 07:17 | 20.06526 | -101.12212 | 16571 ft | 350 kts | 160° |
| 2026-04-27 07:17 | 20.04248 | -101.11338 | 16196 ft | 346 kts | 160° |
| 2026-04-27 07:17 | 20.01994 | -101.10473 | 15817 ft | 342 kts | 160° |
| 2026-04-27 07:18 | 19.99761 | -101.09615 | 15444 ft | 339 kts | 160° |
| 2026-04-27 07:18 | 19.97547 | -101.08764 | 15087 ft | 336 kts | 160° |
| 2026-04-27 07:18 | 19.95360 | -101.07924 | 14739 ft | 332 kts | 159° |
| 2026-04-27 07:18 | 19.93223 | -101.07104 | 14362 ft | 319 kts | 159° |
| 2026-04-27 07:19 | 19.91172 | -101.06318 | 13983 ft | 308 kts | 159° |
| 2026-04-27 07:19 | 19.89226 | -101.05473 | 13610 ft | 297 kts | 149° |
| 2026-04-27 07:19 | 19.87642 | -101.04148 | 13240 ft | 286 kts | 130° |
| 2026-04-27 07:19 | 19.86555 | -101.02432 | 12859 ft | 276 kts | 113° |
| 2026-04-27 07:20 | 19.86009 | -101.00506 | 12483 ft | 269 kts | 96° |
| 2026-04-27 07:20 | 19.86008 | -100.98532 | 12106 ft | 266 kts | 80° |
| 2026-04-27 07:20 | 19.86479 | -100.96641 | 11661 ft | 265 kts | 72° |
| 2026-04-27 07:20 | 19.87032 | -100.94810 | 11219 ft | 263 kts | 72° |
| 2026-04-27 07:21 | 19.87598 | -100.92917 | 10762 ft | 268 kts | 72° |
| 2026-04-27 07:21 | 19.88160 | -100.91037 | 10317 ft | 273 kts | 72° |
| 2026-04-27 07:21 | 19.88736 | -100.89101 | 10031 ft | 272 kts | 73° |
| 2026-04-27 07:21 | 19.89293 | -100.87221 | 10005 ft | 263 kts | 73° |
| 2026-04-27 07:22 | 19.89840 | -100.85373 | 10009 ft | 261 kts | 72° |
| 2026-04-27 07:22 | 19.90387 | -100.83530 | 10012 ft | 262 kts | 73° |
| 2026-04-27 07:22 | 19.90934 | -100.81686 | 10024 ft | 262 kts | 73° |
| 2026-04-27 07:22 | 19.91489 | -100.79860 | 10015 ft | 254 kts | 69° |
| 2026-04-27 07:23 | 19.92421 | -100.78343 | 10016 ft | 242 kts | 43° |
| 2026-04-27 07:23 | 19.93839 | -100.77408 | 10017 ft | 241 kts | 19° |
| 2026-04-27 07:23 | 19.95493 | -100.77195 | 10021 ft | 242 kts | 353° |
| 2026-04-27 07:23 | 19.97079 | -100.77766 | 10018 ft | 243 kts | 327° |
| 2026-04-27 07:24 | 19.98247 | -100.79046 | 10022 ft | 244 kts | 298° |
| 2026-04-27 07:24 | 19.98725 | -100.80759 | 10021 ft | 244 kts | 271° |
| 2026-04-27 07:24 | 19.98415 | -100.82506 | 10018 ft | 243 kts | 244° |
| 2026-04-27 07:24 | 19.97489 | -100.84003 | 10022 ft | 243 kts | 233° |
| 2026-04-27 07:25 | 19.96487 | -100.85449 | 10020 ft | 243 kts | 233° |
| 2026-04-27 07:25 | 19.95486 | -100.86899 | 10022 ft | 243 kts | 233° |
| 2026-04-27 07:25 | 19.94498 | -100.88372 | 9810 ft | 246 kts | 234° |
| 2026-04-27 07:25 | 19.93542 | -100.89825 | 9501 ft | 232 kts | 234° |
| 2026-04-27 07:26 | 19.92653 | -100.91179 | 9125 ft | 216 kts | 234° |
| 2026-04-27 07:26 | 19.91818 | -100.92449 | 8701 ft | 203 kts | 234° |
| 2026-04-27 07:26 | 19.91031 | -100.93646 | 8277 ft | 192 kts | 234° |
| 2026-04-27 07:26 | 19.90296 | -100.94738 | 8009 ft | 169 kts | 233° |
| 2026-04-27 07:27 | 19.89628 | -100.95711 | 7815 ft | 156 kts | 234° |
| 2026-04-27 07:27 | 19.89019 | -100.96618 | 7487 ft | 148 kts | 234° |
| 2026-04-27 07:27 | 19.88397 | -100.97477 | 7125 ft | 146 kts | 234° |
| 2026-04-27 07:27 | 19.87785 | -100.98342 | 6849 ft | 146 kts | 236° |
| 2026-04-27 07:28 | 19.87193 | -100.99221 | 6585 ft | 146 kts | 237° |
| 2026-04-27 07:28 | 19.86617 | -101.00104 | 6339 ft | 145 kts | 236° |
| 2026-04-27 07:28 | 19.86037 | -101.00968 | 6138 ft | 142 kts | 235° |
| 2026-04-27 07:28 | 19.85495 | -101.01786 | 6055 ft | 119 kts | 234° |
| 2026-04-27 07:29 | 19.85104 | -101.02361 | 6056 ft | 78 kts | 235° |
| 2026-04-27 07:29 | 19.84841 | -101.02748 | 6055 ft | 52 kts | 232° |
| 2026-04-27 07:29 | 19.84694 | -101.02946 | 6054 ft | 14 kts | 193° |
| 2026-04-27 07:29 | 19.84604 | -101.02902 | 6054 ft | 15 kts | 145° |
| 2026-04-27 07:30 | 19.84538 | -101.02853 | 6054 ft | 9 kts | 144° |
| 2026-04-27 07:30 | 19.84516 | -101.02837 | 6054 ft | 0 kts | 144° |
| 2026-04-27 07:30 | 19.84511 | -101.02832 | 6054 ft | 2 kts | 137° |
| 2026-04-27 07:30 | 19.84498 | -101.02806 | 6054 ft | 5 kts | 107° |
| 2026-04-27 07:31 | 19.84478 | -101.02778 | 6054 ft | 5 kts | 143° |
| 2026-04-27 07:31 | 19.84453 | -101.02759 | 6054 ft | 3 kts | 144° |
| 2026-04-27 07:31 | 19.84448 | -101.02755 | 6054 ft | 0 kts | 144° |